sensor_id;sensor_type;location;lat;lon;timestamp;pressure;altitude;pressure_sealevel;temperature;humidity
7200;BME280;3641;49.082;8.200;2023-07-13T00:01:25;100290.88;;;20.20;52.59
7200;BME280;3641;49.082;8.200;2023-07-13T00:03:53;100293.56;;;20.49;51.53
7200;BME280;3641;49.082;8.200;2023-07-13T00:06:19;100292.59;;;19.52;55.50
7200;BME280;3641;49.082;8.200;2023-07-13T00:08:46;100295.66;;;19.79;54.64
7200;BME280;3641;49.082;8.200;2023-07-13T00:11:14;100296.03;;;20.00;52.89
7200;BME280;3641;49.082;8.200;2023-07-13T00:13:42;100297.31;;;20.26;51.65
7200;BME280;3641;49.082;8.200;2023-07-13T00:16:10;100292.22;;;20.35;51.86
7200;BME280;3641;49.082;8.200;2023-07-13T00:18:39;100302.75;;;20.04;53.26
7200;BME280;3641;49.082;8.200;2023-07-13T00:21:07;100308.31;;;19.22;56.98
7200;BME280;3641;49.082;8.200;2023-07-13T00:23:36;100305.81;;;19.09;57.39
7200;BME280;3641;49.082;8.200;2023-07-13T00:26:03;100301.13;;;18.74;59.33
7200;BME280;3641;49.082;8.200;2023-07-13T00:28:30;100298.97;;;18.52;60.45
7200;BME280;3641;49.082;8.200;2023-07-13T00:30:57;100299.38;;;19.44;56.13
7200;BME280;3641;49.082;8.200;2023-07-13T00:33:23;100293.91;;;19.49;56.90
7200;BME280;3641;49.082;8.200;2023-07-13T00:35:50;100287.63;;;19.66;53.31
7200;BME280;3641;49.082;8.200;2023-07-13T00:38:17;100293.00;;;19.32;56.77
7200;BME280;3641;49.082;8.200;2023-07-13T00:40:44;100285.28;;;19.74;53.26
7200;BME280;3641;49.082;8.200;2023-07-13T00:43:13;100282.09;;;19.66;53.34
7200;BME280;3641;49.082;8.200;2023-07-13T00:46:12;100275.44;;;19.78;52.74
7200;BME280;3641;49.082;8.200;2023-07-13T00:48:41;100281.41;;;19.87;52.40
7200;BME280;3641;49.082;8.200;2023-07-13T00:51:10;100288.84;;;19.17;58.14
7200;BME280;3641;49.082;8.200;2023-07-13T00:53:39;100286.41;;;19.33;56.86
7200;BME280;3641;49.082;8.200;2023-07-13T00:56:06;100289.03;;;19.39;56.65
7200;BME280;3641;49.082;8.200;2023-07-13T00:58:33;100293.44;;;18.52;59.85
7200;BME280;3641;49.082;8.200;2023-07-13T01:01:00;100290.66;;;18.76;58.30
7200;BME280;3641;49.082;8.200;2023-07-13T01:03:27;100290.16;;;18.79;59.38
7200;BME280;3641;49.082;8.200;2023-07-13T01:05:54;100293.91;;;18.49;59.69
7200;BME280;3641;49.082;8.200;2023-07-13T01:08:21;100290.59;;;18.05;61.39
7200;BME280;3641;49.082;8.200;2023-07-13T01:10:53;100290.06;;;18.27;60.97
7200;BME280;3641;49.082;8.200;2023-07-13T01:13:20;100299.13;;;18.04;61.48
7200;BME280;3641;49.082;8.200;2023-07-13T01:15:49;100297.94;;;17.81;61.77
7200;BME280;3641;49.082;8.200;2023-07-13T01:18:20;100293.31;;;18.59;56.29
7200;BME280;3641;49.082;8.200;2023-07-13T01:20:51;100296.09;;;18.59;58.55
7200;BME280;3641;49.082;8.200;2023-07-13T01:23:18;100297.69;;;17.83;61.09
7200;BME280;3641;49.082;8.200;2023-07-13T01:25:45;100296.94;;;18.06;60.22
7200;BME280;3641;49.082;8.200;2023-07-13T01:28:12;100299.28;;;18.21;59.53
7200;BME280;3641;49.082;8.200;2023-07-13T01:30:39;100295.81;;;18.37;59.46
7200;BME280;3641;49.082;8.200;2023-07-13T01:33:06;100290.13;;;18.20;59.70
7200;BME280;3641;49.082;8.200;2023-07-13T01:35:33;100291.50;;;18.65;58.19
7200;BME280;3641;49.082;8.200;2023-07-13T01:38:01;100290.69;;;18.88;55.29
7200;BME280;3641;49.082;8.200;2023-07-13T01:40:28;100290.44;;;18.90;56.29
7200;BME280;3641;49.082;8.200;2023-07-13T01:42:55;100295.97;;;19.13;54.81
7200;BME280;3641;49.082;8.200;2023-07-13T01:45:21;100286.59;;;19.02;55.49
7200;BME280;3641;49.082;8.200;2023-07-13T01:47:48;100287.66;;;19.13;55.50
7200;BME280;3641;49.082;8.200;2023-07-13T01:50:15;100289.31;;;19.14;53.72
7200;BME280;3641;49.082;8.200;2023-07-13T01:52:41;100286.41;;;19.21;54.11
7200;BME280;3641;49.082;8.200;2023-07-13T01:55:09;100275.34;;;19.33;52.82
7200;BME280;3641;49.082;8.200;2023-07-13T01:57:36;100286.84;;;19.41;52.37
7200;BME280;3641;49.082;8.200;2023-07-13T02:00:04;100296.25;;;19.29;55.17
7200;BME280;3641;49.082;8.200;2023-07-13T02:02:31;100294.16;;;18.72;56.08
7200;BME280;3641;49.082;8.200;2023-07-13T02:04:57;100294.06;;;19.02;54.21
7200;BME280;3641;49.082;8.200;2023-07-13T02:07:23;100299.53;;;18.31;59.75
7200;BME280;3641;49.082;8.200;2023-07-13T02:09:50;100302.44;;;18.83;55.00
7200;BME280;3641;49.082;8.200;2023-07-13T02:12:18;100301.84;;;18.81;55.33
7200;BME280;3641;49.082;8.200;2023-07-13T02:14:44;100295.81;;;19.08;54.11
7200;BME280;3641;49.082;8.200;2023-07-13T02:17:12;100300.16;;;19.16;53.61
7200;BME280;3641;49.082;8.200;2023-07-13T02:19:38;100296.91;;;19.19;53.63
7200;BME280;3641;49.082;8.200;2023-07-13T02:22:05;100296.91;;;19.19;53.71
7200;BME280;3641;49.082;8.200;2023-07-13T02:24:32;100306.91;;;18.96;55.27
7200;BME280;3641;49.082;8.200;2023-07-13T02:26:58;100289.94;;;19.04;54.23
7200;BME280;3641;49.082;8.200;2023-07-13T02:29:26;100289.00;;;18.87;54.84
7200;BME280;3641;49.082;8.200;2023-07-13T02:31:52;100303.81;;;18.93;56.91
7200;BME280;3641;49.082;8.200;2023-07-13T02:34:19;100304.50;;;17.99;59.82
7200;BME280;3641;49.082;8.200;2023-07-13T02:36:45;100311.88;;;18.28;57.77
7200;BME280;3641;49.082;8.200;2023-07-13T02:39:12;100301.84;;;18.69;55.53
7200;BME280;3641;49.082;8.200;2023-07-13T02:41:39;100301.28;;;18.02;61.35
7200;BME280;3641;49.082;8.200;2023-07-13T02:44:06;100300.28;;;18.38;58.29
7200;BME280;3641;49.082;8.200;2023-07-13T02:46:36;100305.34;;;17.99;60.41
7200;BME280;3641;49.082;8.200;2023-07-13T02:49:03;100310.38;;;17.72;62.41
7200;BME280;3641;49.082;8.200;2023-07-13T02:51:30;100313.72;;;17.92;58.25
7200;BME280;3641;49.082;8.200;2023-07-13T02:53:58;100307.56;;;18.21;58.28
7200;BME280;3641;49.082;8.200;2023-07-13T02:56:26;100312.03;;;17.91;60.67
7200;BME280;3641;49.082;8.200;2023-07-13T02:58:53;100307.28;;;18.10;58.62
7200;BME280;3641;49.082;8.200;2023-07-13T03:01:21;100306.88;;;18.37;55.93
7200;BME280;3641;49.082;8.200;2023-07-13T03:03:49;100309.16;;;17.98;60.13
7200;BME280;3641;49.082;8.200;2023-07-13T03:06:16;100303.38;;;18.30;56.01
7200;BME280;3641;49.082;8.200;2023-07-13T03:08:44;100297.50;;;18.50;55.12
7200;BME280;3641;49.082;8.200;2023-07-13T03:11:12;100312.41;;;18.49;55.30
7200;BME280;3641;49.082;8.200;2023-07-13T03:13:40;100307.94;;;18.36;58.42
7200;BME280;3641;49.082;8.200;2023-07-13T03:16:07;100313.34;;;17.21;63.54
7200;BME280;3641;49.082;8.200;2023-07-13T03:18:35;100304.16;;;17.76;58.56
7200;BME280;3641;49.082;8.200;2023-07-13T03:21:04;100306.16;;;17.88;61.62
7200;BME280;3641;49.082;8.200;2023-07-13T03:23:30;100319.63;;;16.92;65.38
7200;BME280;3641;49.082;8.200;2023-07-13T03:26:05;100317.09;;;16.65;67.90
7200;BME280;3641;49.082;8.200;2023-07-13T03:28:32;100315.97;;;17.35;60.41
7200;BME280;3641;49.082;8.200;2023-07-13T03:31:00;100312.28;;;17.90;58.72
7200;BME280;3641;49.082;8.200;2023-07-13T03:33:27;100311.00;;;18.04;57.63
7200;BME280;3641;49.082;8.200;2023-07-13T03:35:53;100325.91;;;18.03;57.56
7200;BME280;3641;49.082;8.200;2023-07-13T03:38:21;100323.28;;;16.35;68.23
7200;BME280;3641;49.082;8.200;2023-07-13T03:40:48;100327.19;;;16.21;68.36
7200;BME280;3641;49.082;8.200;2023-07-13T03:43:15;100335.78;;;16.81;64.21
7200;BME280;3641;49.082;8.200;2023-07-13T03:45:41;100326.44;;;15.68;69.23
7200;BME280;3641;49.082;8.200;2023-07-13T03:48:08;100328.75;;;15.78;69.66
7200;BME280;3641;49.082;8.200;2023-07-13T03:50:34;100337.22;;;16.91;61.33
7200;BME280;3641;49.082;8.200;2023-07-13T03:53:01;100342.13;;;17.07;60.67
7200;BME280;3641;49.082;8.200;2023-07-13T03:55:29;100344.75;;;17.02;60.61
7200;BME280;3641;49.082;8.200;2023-07-13T03:57:59;100344.81;;;16.45;66.76
7200;BME280;3641;49.082;8.200;2023-07-13T04:00:26;100344.78;;;16.51;65.16
7200;BME280;3641;49.082;8.200;2023-07-13T04:02:52;100351.19;;;17.14;59.79
7200;BME280;3641;49.082;8.200;2023-07-13T04:05:19;100349.72;;;16.68;67.17
7200;BME280;3641;49.082;8.200;2023-07-13T04:07:45;100355.88;;;17.32;58.92
7200;BME280;3641;49.082;8.200;2023-07-13T04:10:11;100342.53;;;17.29;59.86
7200;BME280;3641;49.082;8.200;2023-07-13T04:12:39;100352.13;;;17.27;60.28
7200;BME280;3641;49.082;8.200;2023-07-13T04:15:07;100362.53;;;17.06;63.17
7200;BME280;3641;49.082;8.200;2023-07-13T04:17:34;100367.81;;;16.82;61.01
7200;BME280;3641;49.082;8.200;2023-07-13T04:20:00;100360.16;;;17.10;61.77
7200;BME280;3641;49.082;8.200;2023-07-13T04:22:26;100359.25;;;16.65;64.46
7200;BME280;3641;49.082;8.200;2023-07-13T04:24:53;100360.63;;;17.06;63.33
7200;BME280;3641;49.082;8.200;2023-07-13T04:27:19;100365.06;;;17.08;60.47
7200;BME280;3641;49.082;8.200;2023-07-13T04:29:47;100368.75;;;17.20;60.72
7200;BME280;3641;49.082;8.200;2023-07-13T04:32:13;100369.28;;;17.10;60.24
7200;BME280;3641;49.082;8.200;2023-07-13T04:34:40;100374.84;;;17.03;63.41
7200;BME280;3641;49.082;8.200;2023-07-13T04:37:06;100373.78;;;16.79;65.34
7200;BME280;3641;49.082;8.200;2023-07-13T04:39:33;100371.25;;;16.52;66.71
7200;BME280;3641;49.082;8.200;2023-07-13T04:41:59;100362.97;;;16.52;66.15
7200;BME280;3641;49.082;8.200;2023-07-13T04:44:26;100378.75;;;16.70;63.02
7200;BME280;3641;49.082;8.200;2023-07-13T04:46:53;100373.31;;;16.89;64.25
7200;BME280;3641;49.082;8.200;2023-07-13T04:49:20;100380.81;;;16.50;63.48
7200;BME280;3641;49.082;8.200;2023-07-13T04:51:46;100381.38;;;16.84;62.95
7200;BME280;3641;49.082;8.200;2023-07-13T04:54:13;100378.59;;;16.91;62.19
7200;BME280;3641;49.082;8.200;2023-07-13T04:56:39;100387.44;;;16.99;63.13
7200;BME280;3641;49.082;8.200;2023-07-13T04:59:06;100382.22;;;16.84;66.02
7200;BME280;3641;49.082;8.200;2023-07-13T05:01:32;100378.00;;;16.82;65.77
7200;BME280;3641;49.082;8.200;2023-07-13T05:04:00;100387.00;;;17.21;59.91
7200;BME280;3641;49.082;8.200;2023-07-13T05:06:27;100384.91;;;16.98;65.02
7200;BME280;3641;49.082;8.200;2023-07-13T05:08:53;100390.97;;;16.17;67.24
7200;BME280;3641;49.082;8.200;2023-07-13T05:11:20;100393.00;;;16.61;65.35
7200;BME280;3641;49.082;8.200;2023-07-13T05:13:47;100399.53;;;16.98;60.85
7200;BME280;3641;49.082;8.200;2023-07-13T05:16:13;100400.94;;;17.26;59.74
7200;BME280;3641;49.082;8.200;2023-07-13T05:18:40;100404.00;;;17.55;58.47
7200;BME280;3641;49.082;8.200;2023-07-13T05:21:09;100405.31;;;17.15;61.59
7200;BME280;3641;49.082;8.200;2023-07-13T05:23:36;100399.44;;;17.49;59.64
7200;BME280;3641;49.082;8.200;2023-07-13T05:26:04;100399.50;;;17.23;63.85
7200;BME280;3641;49.082;8.200;2023-07-13T05:28:31;100400.41;;;17.36;63.36
7200;BME280;3641;49.082;8.200;2023-07-13T05:30:58;100397.06;;;16.58;68.63
7200;BME280;3641;49.082;8.200;2023-07-13T05:33:24;100396.84;;;16.60;68.70
7200;BME280;3641;49.082;8.200;2023-07-13T05:35:51;100395.94;;;16.41;69.53
7200;BME280;3641;49.082;8.200;2023-07-13T05:38:19;100386.56;;;16.99;63.78
7200;BME280;3641;49.082;8.200;2023-07-13T05:40:46;100401.81;;;16.76;68.98
7200;BME280;3641;49.082;8.200;2023-07-13T05:43:13;100402.91;;;16.68;69.72
7200;BME280;3641;49.082;8.200;2023-07-13T05:45:40;100412.19;;;17.24;66.37
7200;BME280;3641;49.082;8.200;2023-07-13T05:48:06;100405.56;;;17.07;66.42
7200;BME280;3641;49.082;8.200;2023-07-13T05:50:33;100413.59;;;17.34;66.26
7200;BME280;3641;49.082;8.200;2023-07-13T05:52:59;100432.94;;;17.52;63.33
7200;BME280;3641;49.082;8.200;2023-07-13T05:55:27;100431.03;;;17.71;62.56
7200;BME280;3641;49.082;8.200;2023-07-13T05:57:53;100435.03;;;17.94;61.47
7200;BME280;3641;49.082;8.200;2023-07-13T06:00:20;100433.22;;;18.18;61.21
7200;BME280;3641;49.082;8.200;2023-07-13T06:02:47;100432.63;;;17.97;61.45
7200;BME280;3641;49.082;8.200;2023-07-13T06:05:13;100437.53;;;17.77;63.81
7200;BME280;3641;49.082;8.200;2023-07-13T06:07:40;100442.19;;;17.58;64.53
7200;BME280;3641;49.082;8.200;2023-07-13T06:10:07;100448.19;;;17.55;65.63
7200;BME280;3641;49.082;8.200;2023-07-13T06:12:35;100446.00;;;18.31;61.83
7200;BME280;3641;49.082;8.200;2023-07-13T06:15:02;100443.13;;;18.38;62.82
7200;BME280;3641;49.082;8.200;2023-07-13T06:17:29;100447.66;;;18.62;62.91
7200;BME280;3641;49.082;8.200;2023-07-13T06:19:55;100453.25;;;18.44;63.14
7200;BME280;3641;49.082;8.200;2023-07-13T06:22:21;100452.19;;;18.87;60.68
7200;BME280;3641;49.082;8.200;2023-07-13T06:24:48;100453.78;;;19.30;61.17
7200;BME280;3641;49.082;8.200;2023-07-13T06:27:14;100452.72;;;19.31;61.23
7200;BME280;3641;49.082;8.200;2023-07-13T06:29:42;100453.06;;;19.58;59.71
7200;BME280;3641;49.082;8.200;2023-07-13T06:32:10;100455.53;;;20.07;59.21
7200;BME280;3641;49.082;8.200;2023-07-13T06:34:37;100460.88;;;21.00;58.21
7200;BME280;3641;49.082;8.200;2023-07-13T06:37:03;100468.53;;;21.27;56.43
7200;BME280;3641;49.082;8.200;2023-07-13T06:39:30;100471.63;;;21.87;55.90
7200;BME280;3641;49.082;8.200;2023-07-13T06:41:56;100480.38;;;21.95;54.51
7200;BME280;3641;49.082;8.200;2023-07-13T06:44:22;100471.97;;;22.62;52.48
7200;BME280;3641;49.082;8.200;2023-07-13T06:46:50;100478.97;;;21.76;53.30
7200;BME280;3641;49.082;8.200;2023-07-13T06:49:17;100480.28;;;21.90;53.67
7200;BME280;3641;49.082;8.200;2023-07-13T06:51:43;100474.22;;;21.93;52.44
7200;BME280;3641;49.082;8.200;2023-07-13T06:54:09;100476.44;;;21.52;54.08
7200;BME280;3641;49.082;8.200;2023-07-13T06:56:36;100473.06;;;21.33;54.20
7200;BME280;3641;49.082;8.200;2023-07-13T06:59:02;100478.41;;;20.72;55.38
7200;BME280;3641;49.082;8.200;2023-07-13T07:01:29;100467.66;;;20.76;55.59
7200;BME280;3641;49.082;8.200;2023-07-13T07:03:56;100473.47;;;20.91;54.62
7200;BME280;3641;49.082;8.200;2023-07-13T07:06:23;100482.81;;;20.56;54.65
7200;BME280;3641;49.082;8.200;2023-07-13T07:08:50;100481.53;;;20.76;55.00
7200;BME280;3641;49.082;8.200;2023-07-13T07:11:19;100484.69;;;20.67;53.87
7200;BME280;3641;49.082;8.200;2023-07-13T07:13:47;100491.59;;;20.24;52.07
7200;BME280;3641;49.082;8.200;2023-07-13T07:16:14;100487.28;;;20.28;50.90
7200;BME280;3641;49.082;8.200;2023-07-13T07:18:40;100488.63;;;20.14;51.25
7200;BME280;3641;49.082;8.200;2023-07-13T07:21:08;100491.53;;;20.48;52.86
7200;BME280;3641;49.082;8.200;2023-07-13T07:23:34;100491.09;;;20.39;50.33
7200;BME280;3641;49.082;8.200;2023-07-13T07:26:01;100494.44;;;20.12;50.11
7200;BME280;3641;49.082;8.200;2023-07-13T07:28:27;100488.25;;;20.22;50.11
7200;BME280;3641;49.082;8.200;2023-07-13T07:30:56;100496.47;;;20.46;52.16
7200;BME280;3641;49.082;8.200;2023-07-13T07:33:23;100494.22;;;20.60;51.20
7200;BME280;3641;49.082;8.200;2023-07-13T07:35:49;100498.78;;;20.37;49.14
7200;BME280;3641;49.082;8.200;2023-07-13T07:38:17;100498.28;;;20.52;50.85
7200;BME280;3641;49.082;8.200;2023-07-13T07:40:43;100493.41;;;20.59;51.72
7200;BME280;3641;49.082;8.200;2023-07-13T07:43:11;100498.31;;;20.69;49.29
7200;BME280;3641;49.082;8.200;2023-07-13T07:45:38;100500.31;;;20.85;49.24
7200;BME280;3641;49.082;8.200;2023-07-13T07:48:05;100494.38;;;20.65;46.95
7200;BME280;3641;49.082;8.200;2023-07-13T07:50:33;100500.56;;;20.55;46.31
7200;BME280;3641;49.082;8.200;2023-07-13T07:52:59;100499.06;;;20.64;48.44
7200;BME280;3641;49.082;8.200;2023-07-13T07:55:28;100503.09;;;20.85;45.97
7200;BME280;3641;49.082;8.200;2023-07-13T07:57:56;100494.75;;;20.85;45.56
7200;BME280;3641;49.082;8.200;2023-07-13T08:00:22;100511.00;;;20.94;47.61
7200;BME280;3641;49.082;8.200;2023-07-13T08:02:49;100501.50;;;21.07;45.33
7200;BME280;3641;49.082;8.200;2023-07-13T08:05:16;100497.53;;;21.02;46.49
7200;BME280;3641;49.082;8.200;2023-07-13T08:07:43;100496.94;;;21.00;49.40
7200;BME280;3641;49.082;8.200;2023-07-13T08:10:09;100493.94;;;21.19;49.02
7200;BME280;3641;49.082;8.200;2023-07-13T08:12:38;100495.03;;;21.18;46.66
7200;BME280;3641;49.082;8.200;2023-07-13T08:15:08;100497.44;;;21.31;47.32
7200;BME280;3641;49.082;8.200;2023-07-13T08:17:35;100502.94;;;21.26;46.68
7200;BME280;3641;49.082;8.200;2023-07-13T08:20:02;100497.88;;;21.40;48.29
7200;BME280;3641;49.082;8.200;2023-07-13T08:22:29;100493.16;;;21.23;46.38
7200;BME280;3641;49.082;8.200;2023-07-13T08:24:56;100498.88;;;21.34;45.56
7200;BME280;3641;49.082;8.200;2023-07-13T08:27:23;100489.03;;;21.43;48.22
7200;BME280;3641;49.082;8.200;2023-07-13T08:29:52;100501.81;;;21.78;48.64
7200;BME280;3641;49.082;8.200;2023-07-13T08:32:20;100495.19;;;21.62;48.20
7200;BME280;3641;49.082;8.200;2023-07-13T08:34:47;100497.16;;;21.84;46.66
7200;BME280;3641;49.082;8.200;2023-07-13T08:37:14;100486.84;;;21.62;44.82
7200;BME280;3641;49.082;8.200;2023-07-13T08:39:42;100497.59;;;21.75;44.91
7200;BME280;3641;49.082;8.200;2023-07-13T08:42:13;100492.06;;;21.98;46.80
7200;BME280;3641;49.082;8.200;2023-07-13T08:44:49;100495.56;;;21.88;44.18
7200;BME280;3641;49.082;8.200;2023-07-13T08:47:22;100496.19;;;21.95;48.57
7200;BME280;3641;49.082;8.200;2023-07-13T08:49:50;100497.94;;;22.01;48.31
7200;BME280;3641;49.082;8.200;2023-07-13T08:52:26;100491.09;;;21.87;44.91
7200;BME280;3641;49.082;8.200;2023-07-13T08:54:57;100497.06;;;21.95;44.27
7200;BME280;3641;49.082;8.200;2023-07-13T08:57:32;100493.41;;;21.95;44.12
7200;BME280;3641;49.082;8.200;2023-07-13T08:59:59;100494.00;;;21.97;47.80
7200;BME280;3641;49.082;8.200;2023-07-13T09:02:30;100488.38;;;22.14;44.31
7200;BME280;3641;49.082;8.200;2023-07-13T09:05:05;100486.50;;;22.20;45.19
7200;BME280;3641;49.082;8.200;2023-07-13T09:07:45;100493.03;;;22.08;44.56
7200;BME280;3641;49.082;8.200;2023-07-13T09:10:17;100482.00;;;22.36;44.31
7200;BME280;3641;49.082;8.200;2023-07-13T09:12:53;100488.00;;;22.27;44.73
7200;BME280;3641;49.082;8.200;2023-07-13T09:15:26;100480.09;;;22.41;44.63
7200;BME280;3641;49.082;8.200;2023-07-13T09:18:00;100485.59;;;22.36;44.48
7200;BME280;3641;49.082;8.200;2023-07-13T09:20:31;100485.88;;;22.35;43.83
7200;BME280;3641;49.082;8.200;2023-07-13T09:23:03;100490.66;;;22.66;44.71
7200;BME280;3641;49.082;8.200;2023-07-13T09:25:33;100493.03;;;22.30;44.51
7200;BME280;3641;49.082;8.200;2023-07-13T09:28:02;100487.97;;;22.49;44.86
7200;BME280;3641;49.082;8.200;2023-07-13T09:30:39;100495.88;;;22.58;44.09
7200;BME280;3641;49.082;8.200;2023-07-13T09:33:10;100494.13;;;22.52;44.67
7200;BME280;3641;49.082;8.200;2023-07-13T09:35:37;100494.72;;;22.54;45.39
7200;BME280;3641;49.082;8.200;2023-07-13T09:38:11;100487.56;;;22.36;44.33
7200;BME280;3641;49.082;8.200;2023-07-13T09:40:44;100487.44;;;22.80;46.85
7200;BME280;3641;49.082;8.200;2023-07-13T09:43:15;100482.81;;;22.91;42.91
7200;BME280;3641;49.082;8.200;2023-07-13T09:45:45;100484.59;;;23.02;42.52
7200;BME280;3641;49.082;8.200;2023-07-13T09:48:14;100480.34;;;22.94;43.71
7200;BME280;3641;49.082;8.200;2023-07-13T09:50:42;100487.44;;;22.80;42.64
7200;BME280;3641;49.082;8.200;2023-07-13T09:53:14;100489.25;;;22.64;43.20
7200;BME280;3641;49.082;8.200;2023-07-13T09:55:43;100483.56;;;22.81;45.41
7200;BME280;3641;49.082;8.200;2023-07-13T09:58:12;100478.94;;;22.92;43.48
7200;BME280;3641;49.082;8.200;2023-07-13T10:00:40;100491.03;;;23.02;42.53
7200;BME280;3641;49.082;8.200;2023-07-13T10:03:17;100476.66;;;22.83;43.31
7200;BME280;3641;49.082;8.200;2023-07-13T10:05:46;100481.50;;;23.31;42.19
7200;BME280;3641;49.082;8.200;2023-07-13T10:08:19;100480.47;;;23.42;43.78
7200;BME280;3641;49.082;8.200;2023-07-13T10:10:49;100480.06;;;23.66;42.39
7200;BME280;3641;49.082;8.200;2023-07-13T10:13:31;100480.66;;;23.68;41.88
7200;BME280;3641;49.082;8.200;2023-07-13T10:15:59;100478.59;;;23.48;44.21
7200;BME280;3641;49.082;8.200;2023-07-13T10:18:29;100475.56;;;23.60;45.24
7200;BME280;3641;49.082;8.200;2023-07-13T10:21:09;100473.31;;;23.56;40.44
7200;BME280;3641;49.082;8.200;2023-07-13T10:23:37;100473.03;;;23.96;44.94
7200;BME280;3641;49.082;8.200;2023-07-13T10:26:05;100472.75;;;23.97;43.09
7200;BME280;3641;49.082;8.200;2023-07-13T10:28:40;100478.63;;;23.58;39.76
7200;BME280;3641;49.082;8.200;2023-07-13T10:31:12;100475.75;;;23.37;40.12
7200;BME280;3641;49.082;8.200;2023-07-13T10:33:41;100470.81;;;23.55;44.47
7200;BME280;3641;49.082;8.200;2023-07-13T10:36:14;100474.69;;;23.49;40.85
7200;BME280;3641;49.082;8.200;2023-07-13T10:38:43;100474.72;;;23.54;39.54
7200;BME280;3641;49.082;8.200;2023-07-13T10:41:12;100473.59;;;23.55;39.48
7200;BME280;3641;49.082;8.200;2023-07-13T10:43:43;100479.13;;;23.50;43.44
7200;BME280;3641;49.082;8.200;2023-07-13T10:46:12;100481.56;;;23.36;41.30
7200;BME280;3641;49.082;8.200;2023-07-13T10:48:42;100477.78;;;23.52;44.14
7200;BME280;3641;49.082;8.200;2023-07-13T10:51:13;100478.56;;;23.43;39.92
7200;BME280;3641;49.082;8.200;2023-07-13T10:53:41;100476.03;;;23.41;39.60
7200;BME280;3641;49.082;8.200;2023-07-13T10:56:20;100478.91;;;23.56;40.24
7200;BME280;3641;49.082;8.200;2023-07-13T10:59:02;100477.78;;;23.52;43.49
7200;BME280;3641;49.082;8.200;2023-07-13T11:01:40;100474.13;;;23.94;40.80
7200;BME280;3641;49.082;8.200;2023-07-13T11:04:12;100480.06;;;24.14;39.67
7200;BME280;3641;49.082;8.200;2023-07-13T11:06:41;100472.84;;;24.23;41.21
7200;BME280;3641;49.082;8.200;2023-07-13T11:09:35;100467.34;;;24.48;40.20
7200;BME280;3641;49.082;8.200;2023-07-13T11:12:07;100473.19;;;24.42;39.75
7200;BME280;3641;49.082;8.200;2023-07-13T11:14:36;100473.28;;;24.62;40.43
7200;BME280;3641;49.082;8.200;2023-07-13T11:20:22;100473.44;;;24.30;38.50
7200;BME280;3641;49.082;8.200;2023-07-13T11:22:50;100465.91;;;24.25;38.95
7200;BME280;3641;49.082;8.200;2023-07-13T11:25:25;100472.88;;;24.28;40.71
7200;BME280;3641;49.082;8.200;2023-07-13T11:28:05;100468.09;;;24.13;38.24
7200;BME280;3641;49.082;8.200;2023-07-13T11:30:36;100468.81;;;24.61;40.16
7200;BME280;3641;49.082;8.200;2023-07-13T11:33:13;100462.94;;;24.58;39.44
7200;BME280;3641;49.082;8.200;2023-07-13T11:35:58;100464.06;;;24.62;36.85
7200;BME280;3641;49.082;8.200;2023-07-13T11:38:30;100464.34;;;24.81;36.67
7200;BME280;3641;49.082;8.200;2023-07-13T11:41:01;100462.94;;;24.58;36.25
7200;BME280;3641;49.082;8.200;2023-07-13T11:43:29;100456.28;;;24.84;39.00
7200;BME280;3641;49.082;8.200;2023-07-13T11:45:58;100455.72;;;25.13;36.97
7200;BME280;3641;49.082;8.200;2023-07-13T11:48:27;100454.31;;;25.11;34.95
7200;BME280;3641;49.082;8.200;2023-07-13T11:50:59;100447.88;;;25.00;36.08
7200;BME280;3641;49.082;8.200;2023-07-13T11:53:29;100457.69;;;24.97;36.59
7200;BME280;3641;49.082;8.200;2023-07-13T11:55:57;100450.69;;;25.15;34.97
7200;BME280;3641;49.082;8.200;2023-07-13T11:58:25;100450.09;;;25.24;34.01
7200;BME280;3641;49.082;8.200;2023-07-13T12:00:53;100446.47;;;25.49;35.27
7200;BME280;3641;49.082;8.200;2023-07-13T12:03:22;100448.72;;;25.47;37.03
7200;BME280;3641;49.082;8.200;2023-07-13T12:06:02;100445.66;;;25.23;34.24
7200;BME280;3641;49.082;8.200;2023-07-13T12:08:32;100448.72;;;25.52;34.94
7200;BME280;3641;49.082;8.200;2023-07-13T12:11:05;100445.09;;;25.41;33.73
7200;BME280;3641;49.082;8.200;2023-07-13T12:13:36;100438.97;;;25.34;32.46
7200;BME280;3641;49.082;8.200;2023-07-13T12:16:12;100438.66;;;25.20;33.14
7200;BME280;3641;49.082;8.200;2023-07-13T12:18:42;100442.84;;;25.12;33.93
7200;BME280;3641;49.082;8.200;2023-07-13T12:21:15;100455.72;;;24.93;33.22
7200;BME280;3641;49.082;8.200;2023-07-13T12:23:43;100441.75;;;25.03;37.80
7200;BME280;3641;49.082;8.200;2023-07-13T12:26:11;100438.69;;;24.94;32.36
7200;BME280;3641;49.082;8.200;2023-07-13T12:28:43;100439.78;;;25.24;36.72
7200;BME280;3641;49.082;8.200;2023-07-13T12:31:23;100436.44;;;25.01;33.27
7200;BME280;3641;49.082;8.200;2023-07-13T12:33:56;100443.69;;;25.08;34.12
7200;BME280;3641;49.082;8.200;2023-07-13T12:36:25;100450.66;;;24.74;35.07
7200;BME280;3641;49.082;8.200;2023-07-13T12:38:52;100450.41;;;24.65;33.56
7200;BME280;3641;49.082;8.200;2023-07-13T12:41:19;100445.91;;;24.59;33.25
7200;BME280;3641;49.082;8.200;2023-07-13T12:43:46;100446.22;;;24.78;34.15
7200;BME280;3641;49.082;8.200;2023-07-13T12:46:18;100448.47;;;25.02;33.84
7200;BME280;3641;49.082;8.200;2023-07-13T12:48:49;100447.91;;;25.10;33.68
7200;BME280;3641;49.082;8.200;2023-07-13T12:51:16;100447.03;;;25.46;33.13
7200;BME280;3641;49.082;8.200;2023-07-13T12:53:48;100441.06;;;25.78;32.58
7200;BME280;3641;49.082;8.200;2023-07-13T12:56:19;100449.22;;;25.59;34.06
7200;BME280;3641;49.082;8.200;2023-07-13T12:58:48;100454.88;;;25.44;32.79
7200;BME280;3641;49.082;8.200;2023-07-13T13:01:20;100459.06;;;25.41;37.57
7200;BME280;3641;49.082;8.200;2023-07-13T13:03:49;100457.94;;;25.42;34.56
7200;BME280;3641;49.082;8.200;2023-07-13T13:06:22;100456.56;;;25.29;35.23
7200;BME280;3641;49.082;8.200;2023-07-13T13:08:51;100462.44;;;25.28;33.59
7200;BME280;3641;49.082;8.200;2023-07-13T13:11:19;100460.72;;;25.27;36.17
7200;BME280;3641;49.082;8.200;2023-07-13T13:13:46;100466.91;;;25.13;37.81
7200;BME280;3641;49.082;8.200;2023-07-13T13:16:19;100464.66;;;25.00;35.03
7200;BME280;3641;49.082;8.200;2023-07-13T13:18:45;100470.25;;;24.84;33.66
7200;BME280;3641;49.082;8.200;2023-07-13T13:21:12;100460.72;;;24.86;34.37